Terminal Aerodrome Forecast
Issued by NWS

Home | Current Version | Previous Version | Text Only | Print | Product List | Glossary Off
Versions: 1 2 3 4 5 6 7 8 9 10 11 12 13 14 15

167
FTUS43 KMPX 240823 AAA
TAFAXN
TAF AMD
KAXN 240823Z 2408/2506 24006KT P6SM OVC020
      TEMPO 2408/2412 BKN004 OVC020
     FM241200 28006KT P6SM SCT020
     FM241700 28014G22KT P6SM SKC
     FM250000 28007KT P6SM FEW250=

USA.gov is the U.S. government's official web portal to all federal, state and local government web resources and services.